createdAt,value
2019-05-14T00:01:53.669Z,9.34
2019-05-14T00:04:24.249Z,9.43
2019-05-14T00:06:54.820Z,9.50
2019-05-14T00:09:25.411Z,9.34
2019-05-14T00:11:56.276Z,9.50
2019-05-14T00:14:38.780Z,9.45
2019-05-14T00:16:59.150Z,9.54
2019-05-14T00:19:31.818Z,9.49
2019-05-14T00:22:02.185Z,9.54
2019-05-14T00:24:33.915Z,9.68
2019-05-14T00:27:04.494Z,9.68
2019-05-14T00:29:35.071Z,9.81
2019-05-14T00:32:05.628Z,9.90
2019-05-14T00:34:39.151Z,9.77
2019-05-14T00:37:11.456Z,9.77
2019-05-14T00:39:41.999Z,9.77
2019-05-14T00:42:12.758Z,9.76
2019-05-14T00:44:54.649Z,9.59
2019-05-14T00:47:15.590Z,9.67
2019-05-14T00:49:46.170Z,9.83
2019-05-14T00:52:16.730Z,9.87
2019-05-14T00:54:47.298Z,9.76
2019-05-14T00:57:17.882Z,9.98
2019-05-14T00:59:48.459Z,10.03
2019-05-14T01:02:19.038Z,10.07
2019-05-14T01:04:51.593Z,9.79
2019-05-14T01:07:23.066Z,9.78
2019-05-14T01:09:53.636Z,9.95
2019-05-14T01:12:25.200Z,9.93
2019-05-14T01:15:09.641Z,9.94
2019-05-14T01:17:28.104Z,10.16
2019-05-14T01:19:58.681Z,9.99
2019-05-14T01:22:31.633Z,9.97
2019-05-14T01:25:02.480Z,9.64
2019-05-14T01:27:33.262Z,9.92
2019-05-14T01:30:04.850Z,9.56
2019-05-14T01:32:35.430Z,9.92
2019-05-14T01:35:07.336Z,9.95
2019-05-14T01:37:37.901Z,9.87
2019-05-14T01:40:11.228Z,9.66
2019-05-14T01:42:41.803Z,9.90
2019-05-14T01:45:23.972Z,9.87
2019-05-14T01:47:45.486Z,9.76
2019-05-14T01:50:16.214Z,9.84
2019-05-14T01:52:46.776Z,9.63
2019-05-14T01:55:17.358Z,9.54
2019-05-14T01:57:48.041Z,9.63
2019-05-14T02:00:21.872Z,9.76
2019-05-14T02:02:52.525Z,9.45
2019-05-14T02:05:23.254Z,9.50
2019-05-14T02:07:53.814Z,9.55
2019-05-14T02:10:24.625Z,9.42
2019-05-14T02:12:55.282Z,9.24
2019-05-14T02:15:37.107Z,9.51
2019-05-14T02:17:58.150Z,9.47
2019-05-14T02:20:28.699Z,9.59
2019-05-14T02:23:01.435Z,9.25
2019-05-14T02:25:32.220Z,8.98
2019-05-14T02:28:03.915Z,8.64
2019-05-14T02:30:48.138Z,8.66
2019-05-14T02:33:09.224Z,8.65
2019-05-14T02:35:39.890Z,8.74
2019-05-14T02:38:10.638Z,8.91
2019-05-14T02:40:41.186Z,8.97
2019-05-14T02:43:11.755Z,8.65
2019-05-14T02:46:00.757Z,8.29
2019-05-14T02:48:14.674Z,8.28
2019-05-14T02:50:45.232Z,8.61
2019-05-14T02:53:19.517Z,8.69
2019-05-14T02:55:49.742Z,8.87
2019-05-14T02:58:21.085Z,8.83
2019-05-14T03:00:51.710Z,8.54
2019-05-14T03:03:23.403Z,8.64
2019-05-14T03:05:54.055Z,8.71
2019-05-14T03:08:24.775Z,8.77
2019-05-14T03:10:55.353Z,8.76
2019-05-14T03:13:29.591Z,8.91
2019-05-14T03:16:20.365Z,9.06
2019-05-14T03:18:32.872Z,9.17
2019-05-14T03:21:03.429Z,9.10
2019-05-14T03:23:34.007Z,9.31
2019-05-14T03:26:04.692Z,9.12
2019-05-14T03:28:35.248Z,9.07
2019-05-14T03:31:05.802Z,8.89
2019-05-14T03:33:36.580Z,8.66
2019-05-14T03:36:17.313Z,8.85
2019-05-14T03:38:40.994Z,8.97
2019-05-14T03:41:14.078Z,8.87
2019-05-14T03:43:44.050Z,8.93
2019-05-14T03:46:14.590Z,8.95
2019-05-14T03:48:45.160Z,8.59
2019-05-14T03:51:15.738Z,8.42
2019-05-14T03:54:00.644Z,8.73
2019-05-14T03:56:19.403Z,8.47
2019-05-14T03:58:50.066Z,8.85
2019-05-14T04:01:20.866Z,8.64
2019-05-14T04:03:51.589Z,9.06
2019-05-14T04:06:24.112Z,9.03
2019-05-14T04:09:00.299Z,9.00
2019-05-14T04:11:31.249Z,9.06
2019-05-14T04:14:03.439Z,8.91
2019-05-14T04:16:36.086Z,9.32
2019-05-14T04:19:10.038Z,9.47
2019-05-14T04:21:44.180Z,9.76
2019-05-14T04:24:14.742Z,9.77
2019-05-14T04:27:00.949Z,9.65
2019-05-14T04:29:21.103Z,9.64
2019-05-14T04:31:54.189Z,9.73
2019-05-14T04:34:24.837Z,9.96
2019-05-14T04:36:59.079Z,9.88
2019-05-14T04:39:30.823Z,10.04
2019-05-14T04:42:00.613Z,10.19
2019-05-14T04:44:31.285Z,10.58
2019-05-14T04:47:21.444Z,10.47
2019-05-14T04:49:35.580Z,10.44
2019-05-14T04:52:09.713Z,10.33
2019-05-14T04:54:39.821Z,10.32
2019-05-14T04:57:10.926Z,9.84
2019-05-14T04:59:42.731Z,10.30
2019-05-14T05:02:14.024Z,10.43
2019-05-14T05:04:44.776Z,10.38
2019-05-14T05:07:15.497Z,10.10
2019-05-14T05:09:46.193Z,10.06
2019-05-14T05:12:19.471Z,10.28
2019-05-14T05:14:49.667Z,10.08
2019-05-14T05:17:20.378Z,9.83
2019-05-14T05:19:51.882Z,11.17
2019-05-14T05:22:23.280Z,10.80
2019-05-14T05:24:54.246Z,10.53
2019-05-14T05:27:24.857Z,10.26
2019-05-14T05:29:55.566Z,11.16
2019-05-14T05:32:28.557Z,11.41
2019-05-14T05:34:59.156Z,11.86
2019-05-14T05:37:30.161Z,11.76
2019-05-14T05:40:00.928Z,11.05
2019-05-14T05:42:31.801Z,12.44
2019-05-14T05:45:03.999Z,13.51
2019-05-14T05:47:34.661Z,13.48
2019-05-14T05:50:08.708Z,14.56
2019-05-14T05:52:39.483Z,14.50
2019-05-14T05:55:10.218Z,14.45
2019-05-14T05:57:40.819Z,15.66
2019-05-14T06:00:13.430Z,14.80
2019-05-14T06:02:44.011Z,14.83
2019-05-14T06:05:14.722Z,15.25
2019-05-14T06:07:45.295Z,14.03
2019-05-14T06:10:18.569Z,13.26
2019-05-14T06:12:49.094Z,12.36
2019-05-14T06:15:19.898Z,11.41
2019-05-14T06:17:50.688Z,11.20
2019-05-14T06:20:21.266Z,11.57
2019-05-14T06:22:52.083Z,11.40
2019-05-14T06:25:22.681Z,10.94
2019-05-14T06:27:53.545Z,10.86
2019-05-14T06:30:35.925Z,10.78
2019-05-14T06:33:09.023Z,10.44
2019-05-14T06:35:39.605Z,10.16
2019-05-14T06:38:10.563Z,10.58
2019-05-14T06:40:42.115Z,10.90
2019-05-14T06:43:12.705Z,10.35
2019-05-14T06:45:43.299Z,10.89
2019-05-14T06:48:26.889Z,11.17
2019-05-14T06:50:46.134Z,10.87
2019-05-14T06:53:19.241Z,10.22
2019-05-14T06:55:49.355Z,10.54
2019-05-14T06:58:20.519Z,10.52
2019-05-14T07:00:51.158Z,10.19
2019-05-14T07:03:21.766Z,9.96
2019-05-14T07:05:52.345Z,10.33
2019-05-14T07:08:23.024Z,10.51
2019-05-14T07:10:53.606Z,10.52
2019-05-14T07:13:25.349Z,10.53
2019-05-14T07:15:58.206Z,10.19
2019-05-14T07:18:33.318Z,10.22
2019-05-14T07:21:00.822Z,10.21
2019-05-14T07:23:31.407Z,10.46
2019-05-14T07:26:01.978Z,10.65
2019-05-14T07:28:32.559Z,10.19
2019-05-14T07:31:03.140Z,10.16
2019-05-14T07:33:33.721Z,10.68
2019-05-14T07:36:04.366Z,10.39
2019-05-14T07:38:34.955Z,10.34
2019-05-14T07:41:05.541Z,10.35
2019-05-14T07:43:36.114Z,10.51
2019-05-14T07:46:08.481Z,10.80
2019-05-14T07:48:39.484Z,10.82
2019-05-14T07:51:10.033Z,10.99
2019-05-14T07:53:42.494Z,10.77
2019-05-14T07:56:12.944Z,11.02
2019-05-14T07:58:43.715Z,10.60
2019-05-14T08:01:14.354Z,10.22
2019-05-14T08:03:48.531Z,10.52
2019-05-14T08:06:20.135Z,10.13
2019-05-14T08:08:50.914Z,10.28
2019-05-14T08:11:23.933Z,10.69
2019-05-14T08:13:54.705Z,10.31
2019-05-14T08:16:28.590Z,10.51
2019-05-14T08:19:00.109Z,10.80
2019-05-14T08:21:31.150Z,10.64
2019-05-14T08:24:03.200Z,10.20
2019-05-14T08:26:42.913Z,9.78
2019-05-14T08:29:13.455Z,9.56
2019-05-14T08:31:44.045Z,8.84
2019-05-14T08:34:14.628Z,9.51
2019-05-14T08:36:45.213Z,9.43
2019-05-14T08:39:18.403Z,9.06
2019-05-14T08:41:58.551Z,8.89
2019-05-14T08:44:22.509Z,9.28
2019-05-14T08:46:53.319Z,9.65
2019-05-14T08:49:37.785Z,9.87
2019-05-14T08:51:56.184Z,9.86
2019-05-14T08:54:28.395Z,9.81
2019-05-14T08:56:59.400Z,10.39
2019-05-14T08:59:30.085Z,10.63
2019-05-14T09:02:06.179Z,10.31
2019-05-14T09:04:33.267Z,10.67
2019-05-14T09:07:03.863Z,10.46
2019-05-14T09:09:38.087Z,9.77
2019-05-14T09:12:12.493Z,9.94
2019-05-14T09:14:40.511Z,10.45
2019-05-14T09:17:14.634Z,10.67
2019-05-14T09:19:57.839Z,10.31
2019-05-14T09:22:18.260Z,10.47
2019-05-14T09:24:49.111Z,10.64
2019-05-14T09:27:22.029Z,10.64
2019-05-14T09:29:52.628Z,10.47
2019-05-14T09:32:23.296Z,10.62
2019-05-14T09:34:54.849Z,10.82
2019-05-14T09:37:25.538Z,10.80
2019-05-14T09:39:58.286Z,11.10
2019-05-14T09:42:28.764Z,11.08
2019-05-14T09:44:59.744Z,10.95
2019-05-14T09:47:30.575Z,10.95
2019-05-14T09:50:14.120Z,10.55
2019-05-14T09:52:33.481Z,10.94
2019-05-14T09:55:04.946Z,11.14
2019-05-14T09:57:35.584Z,11.33
2019-05-14T10:00:10.447Z,11.56
2019-05-14T10:02:41.208Z,11.59
2019-05-14T10:05:12.226Z,11.41
2019-05-14T10:07:42.854Z,11.48
2019-05-14T10:10:13.597Z,11.83
2019-05-14T10:12:53.845Z,12.09
2019-05-14T10:15:17.677Z,12.32
2019-05-14T10:17:49.988Z,12.09
2019-05-14T10:20:36.445Z,12.05
2019-05-14T10:22:53.334Z,11.56
2019-05-14T10:25:23.898Z,11.46
2019-05-14T10:27:54.467Z,12.16
2019-05-14T10:30:25.152Z,12.20
2019-05-14T10:32:55.807Z,12.43
2019-05-14T10:35:28.538Z,13.03
2019-05-14T10:37:59.831Z,13.27
2019-05-14T10:40:33.975Z,12.63
2019-05-14T10:43:04.558Z,12.64
2019-05-14T10:45:35.184Z,12.43
2019-05-14T10:48:09.684Z,12.48
2019-05-14T10:50:55.766Z,12.69
2019-05-14T10:53:11.789Z,12.60
2019-05-14T10:55:42.369Z,12.57
2019-05-14T10:58:12.950Z,12.83
2019-05-14T11:00:43.607Z,12.81
2019-05-14T11:03:14.202Z,12.60
2019-05-14T11:05:44.795Z,12.89
2019-05-14T11:08:15.375Z,12.70
2019-05-14T11:10:45.943Z,12.84
2019-05-14T11:13:18.800Z,13.31
2019-05-14T11:15:48.919Z,13.40
2019-05-14T11:18:20.136Z,13.28
2019-05-14T11:20:51.657Z,13.55
2019-05-14T11:23:22.877Z,13.59
2019-05-14T11:25:54.633Z,12.99
2019-05-14T11:28:25.211Z,12.88
2019-05-14T11:30:55.800Z,12.98
2019-05-14T11:33:27.411Z,12.85
2019-05-14T11:35:59.754Z,13.45
2019-05-14T11:38:37.254Z,13.39
2019-05-14T11:41:03.312Z,13.56
2019-05-14T11:43:33.892Z,13.56
2019-05-14T11:46:04.604Z,13.48
2019-05-14T11:48:35.241Z,13.43
2019-05-14T11:51:08.793Z,13.74
2019-05-14T11:53:38.658Z,14.06
2019-05-14T11:56:10.615Z,13.70
2019-05-14T11:58:41.289Z,13.86
2019-05-14T12:01:11.871Z,13.60
2019-05-14T12:03:42.478Z,13.77
2019-05-14T12:06:13.031Z,13.69
2019-05-14T12:08:43.778Z,13.94
2019-05-14T12:11:14.343Z,13.90
2019-05-14T12:13:44.964Z,14.04
2019-05-14T12:16:15.533Z,14.31
2019-05-14T12:18:48.439Z,14.10
2019-05-14T12:21:18.406Z,13.71
2019-05-14T12:23:50.566Z,13.94
2019-05-14T12:26:21.130Z,14.13
2019-05-14T12:28:51.685Z,14.16
2019-05-14T12:31:22.339Z,14.24
2019-05-14T12:33:52.946Z,14.07
2019-05-14T12:36:23.701Z,13.91
2019-05-14T12:38:54.267Z,14.29
2019-05-14T12:41:24.851Z,14.41
2019-05-14T12:43:55.846Z,13.91
2019-05-14T12:46:29.263Z,14.01
2019-05-14T12:48:59.158Z,14.63
2019-05-14T12:51:30.109Z,14.10
2019-05-14T12:54:00.702Z,13.61
2019-05-14T12:56:31.471Z,13.69
2019-05-14T12:59:02.427Z,14.27
2019-05-14T13:01:33.104Z,14.07
2019-05-14T13:04:03.996Z,13.92
2019-05-14T13:06:34.640Z,13.54
2019-05-14T13:09:09.199Z,13.71
2019-05-14T13:11:41.639Z,13.77
2019-05-14T13:14:11.266Z,14.08
2019-05-14T13:16:41.834Z,13.82
2019-05-14T13:19:13.479Z,14.07
2019-05-14T13:21:44.719Z,13.89
2019-05-14T13:24:15.320Z,13.82
2019-05-14T13:26:45.916Z,13.77
2019-05-14T13:29:19.151Z,13.69
2019-05-14T13:31:49.706Z,13.74
2019-05-14T13:34:20.451Z,13.63
2019-05-14T13:36:51.023Z,13.72
2019-05-14T13:39:21.603Z,14.04
2019-05-14T13:41:52.183Z,14.16
2019-05-14T13:44:25.286Z,14.38
2019-05-14T13:46:59.364Z,14.58
2019-05-14T13:49:29.832Z,14.55
2019-05-14T13:52:00.369Z,14.14
2019-05-14T13:54:31.920Z,14.38
2019-05-14T13:57:02.706Z,14.10
2019-05-14T13:59:33.309Z,13.98
2019-05-14T14:02:03.891Z,14.10
2019-05-14T14:04:34.475Z,14.17
2019-05-14T14:07:08.796Z,14.34
2019-05-14T14:09:39.517Z,14.33
2019-05-14T14:12:11.894Z,14.15
2019-05-14T14:14:42.500Z,13.90
2019-05-14T14:17:18.495Z,14.16
2019-05-14T14:19:48.451Z,14.35
2019-05-14T14:22:19.619Z,14.45
2019-05-14T14:24:50.382Z,14.85
2019-05-14T14:27:21.092Z,15.03
2019-05-14T14:29:51.766Z,14.77
2019-05-14T14:32:22.382Z,15.04
2019-05-14T14:34:54.080Z,14.95
2019-05-14T14:37:24.668Z,15.02
2019-05-14T14:39:55.427Z,14.98
2019-05-14T14:42:29.343Z,14.63
2019-05-14T14:44:58.407Z,14.64
2019-05-14T14:47:29.383Z,14.63
2019-05-14T14:50:00.490Z,14.61
2019-05-14T14:52:32.516Z,14.62
2019-05-14T14:55:03.191Z,14.76
2019-05-14T14:57:44.887Z,14.45
2019-05-14T15:00:12.042Z,14.45
2019-05-14T15:02:42.626Z,14.80
2019-05-14T15:05:14.471Z,15.08
2019-05-14T15:07:45.274Z,14.82
2019-05-14T15:10:16.084Z,14.74
2019-05-14T15:12:49.751Z,14.96
2019-05-14T15:15:19.117Z,14.61
2019-05-14T15:17:49.697Z,14.10
2019-05-14T15:20:20.283Z,14.39
2019-05-14T15:22:51.693Z,14.46
2019-05-14T15:25:22.250Z,14.26
2019-05-14T15:27:52.842Z,14.36
2019-05-14T15:30:23.528Z,14.26
2019-05-14T15:32:54.186Z,14.26
2019-05-14T15:35:24.780Z,14.19
2019-05-14T15:37:55.360Z,13.97
2019-05-14T15:40:28.644Z,14.05
2019-05-14T15:43:01.621Z,13.91
2019-05-14T15:45:30.719Z,14.07
2019-05-14T15:48:03.903Z,13.89
2019-05-14T15:50:33.609Z,13.94
2019-05-14T15:53:04.177Z,13.90
2019-05-14T15:55:34.943Z,13.84
2019-05-14T15:58:08.788Z,13.53
2019-05-14T16:00:39.540Z,14.00
2019-05-14T16:03:10.116Z,14.24
2019-05-14T16:05:40.702Z,14.10
2019-05-14T16:08:11.385Z,13.95
2019-05-14T16:10:41.947Z,14.19
2019-05-14T16:13:12.589Z,14.31
2019-05-14T16:15:43.441Z,14.45
2019-05-14T16:18:18.515Z,14.54
2019-05-14T16:20:49.692Z,14.28
2019-05-14T16:23:20.585Z,13.98
2019-05-14T16:25:51.670Z,13.63
2019-05-14T16:28:22.225Z,13.45
2019-05-14T16:30:52.833Z,13.63
2019-05-14T16:33:23.405Z,13.35
2019-05-14T16:35:54.725Z,13.98
2019-05-14T16:38:28.582Z,14.10
2019-05-14T16:40:59.843Z,14.14
2019-05-14T16:43:32.446Z,13.90
2019-05-14T16:46:02.730Z,14.21
2019-05-14T16:48:34.286Z,13.99
2019-05-14T16:51:04.985Z,14.10
2019-05-14T16:53:37.829Z,14.12
2019-05-14T16:56:08.416Z,13.96
2019-05-14T16:58:39.230Z,14.29
2019-05-14T17:01:10.101Z,13.47
2019-05-14T17:03:40.856Z,13.57
2019-05-14T17:06:11.442Z,13.35
2019-05-14T17:08:41.999Z,14.00
2019-05-14T17:11:12.599Z,13.58
2019-05-14T17:13:43.273Z,13.95
2019-05-14T17:16:15.358Z,13.18
2019-05-14T17:18:48.159Z,13.15
2019-05-14T17:21:19.438Z,12.77
2019-05-14T17:23:50.206Z,12.53
2019-05-14T17:26:20.838Z,12.31
2019-05-14T17:28:51.442Z,12.14
2019-05-14T17:31:22.221Z,12.23
2019-05-14T17:33:53.315Z,12.17
2019-05-14T17:36:24.626Z,12.10
2019-05-14T17:38:58.493Z,12.10
2019-05-14T17:41:28.836Z,11.92
2019-05-14T17:43:59.853Z,11.85
2019-05-14T17:46:31.082Z,11.84
2019-05-14T17:49:02.641Z,11.69
2019-05-14T17:51:33.661Z,11.64
2019-05-14T17:54:04.823Z,11.74
2019-05-14T17:56:36.403Z,11.59
2019-05-14T17:59:09.128Z,11.57
2019-05-14T18:01:39.836Z,11.53
2019-05-14T18:04:15.171Z,11.40
2019-05-14T18:06:48.652Z,11.34
2019-05-14T18:09:19.734Z,11.40
2019-05-14T18:11:50.659Z,11.29
2019-05-14T18:14:21.814Z,11.31
2019-05-14T18:16:53.351Z,11.63
2019-05-14T18:19:24.755Z,11.57
2019-05-14T18:24:28.609Z,11.53
2019-05-14T18:26:59.822Z,11.44
2019-05-14T18:29:30.847Z,11.38
2019-05-14T18:32:02.294Z,11.33
2019-05-14T18:34:33.392Z,11.47
2019-05-14T18:37:04.170Z,11.59
2019-05-14T18:39:36.077Z,11.72
2019-05-14T18:42:08.596Z,11.70
2019-05-14T18:44:39.718Z,11.32
2019-05-14T18:47:11.086Z,11.26
2019-05-14T18:49:42.121Z,11.32
2019-05-14T18:52:13.511Z,11.31
2019-05-14T18:54:44.895Z,11.25
2019-05-14T18:57:18.106Z,11.15
2019-05-14T18:59:49.424Z,11.17
2019-05-14T19:02:20.850Z,11.09
2019-05-14T19:04:52.127Z,10.96
2019-05-14T19:07:22.841Z,11.10
2019-05-14T19:09:53.462Z,11.11
2019-05-14T19:12:24.238Z,11.04
2019-05-14T19:14:58.702Z,10.92
2019-05-14T19:17:29.260Z,10.94
2019-05-14T19:19:59.990Z,11.32
2019-05-14T19:22:30.949Z,10.98
2019-05-14T19:25:01.960Z,10.75
2019-05-14T19:27:32.725Z,10.74
2019-05-14T19:30:05.495Z,10.69
2019-05-14T19:32:39.535Z,10.60
2019-05-14T19:35:14.698Z,10.69
2019-05-14T19:37:44.078Z,10.58
2019-05-14T19:40:15.882Z,10.59
2019-05-14T19:42:48.474Z,10.75
2019-05-14T19:45:19.572Z,10.75
2019-05-14T19:47:51.749Z,10.68
2019-05-14T19:50:24.011Z,10.65
2019-05-14T19:52:54.988Z,10.63
2019-05-14T19:55:28.851Z,10.85
2019-05-14T19:57:59.968Z,10.97
2019-05-14T20:00:31.190Z,10.90
2019-05-14T20:03:02.110Z,11.01
2019-05-14T20:05:34.406Z,10.77
2019-05-14T20:08:05.221Z,10.66
2019-05-14T20:10:38.483Z,10.64
2019-05-14T20:13:10.865Z,10.93
2019-05-14T20:15:42.088Z,10.51
2019-05-14T20:18:13.399Z,10.78
2019-05-14T20:20:45.420Z,10.79
2019-05-14T20:23:18.363Z,10.75
2019-05-14T20:25:48.683Z,10.73
2019-05-14T20:28:20.584Z,10.57
2019-05-14T20:30:51.241Z,10.53
2019-05-14T20:33:22.446Z,10.64
2019-05-14T20:35:54.142Z,10.76
2019-05-14T20:38:24.988Z,10.70
2019-05-14T20:40:58.104Z,10.73
2019-05-14T20:43:30.234Z,10.66
2019-05-14T20:46:00.815Z,10.63
2019-05-14T20:48:31.506Z,10.49
2019-05-14T20:51:02.116Z,10.53
2019-05-14T20:53:32.701Z,10.39
2019-05-14T20:56:04.068Z,10.75
2019-05-14T20:58:38.791Z,10.59
2019-05-14T21:01:11.394Z,10.39
2019-05-14T21:03:44.064Z,10.38
2019-05-14T21:06:14.766Z,10.22
2019-05-14T21:08:45.354Z,10.33
2019-05-14T21:11:15.934Z,10.19
2019-05-14T21:13:50.051Z,10.64
2019-05-14T21:16:18.892Z,10.75
2019-05-14T21:18:50.965Z,10.89
2019-05-14T21:21:21.609Z,10.73
2019-05-14T21:23:52.199Z,10.62
2019-05-14T21:26:24.360Z,10.71
2019-05-14T21:28:54.966Z,10.69
2019-05-14T21:31:28.215Z,10.69
2019-05-14T21:33:58.615Z,10.44
2019-05-14T21:36:29.354Z,10.63
2019-05-14T21:38:59.929Z,10.68
2019-05-14T21:41:32.641Z,10.54
2019-05-14T21:44:03.212Z,10.61
2019-05-14T21:46:33.798Z,10.74
2019-05-14T21:49:04.392Z,10.80
2019-05-14T21:51:34.951Z,10.91
2019-05-14T21:54:05.589Z,10.60
2019-05-14T21:56:38.455Z,10.56
2019-05-14T21:59:09.451Z,10.45
2019-05-14T22:01:40.573Z,10.76
2019-05-14T22:04:12.208Z,10.98
2019-05-14T22:06:42.778Z,10.54
2019-05-14T22:09:13.341Z,10.36
2019-05-14T22:11:44.205Z,10.46
2019-05-14T22:14:14.810Z,10.63
2019-05-14T22:16:45.381Z,10.36
2019-05-14T22:19:15.946Z,10.45
2019-05-14T22:21:49.029Z,10.55
2019-05-14T22:24:21.054Z,10.44
2019-05-14T22:26:51.389Z,10.66
2019-05-14T22:29:22.181Z,10.80
2019-05-14T22:31:52.764Z,10.36
2019-05-14T22:34:23.336Z,10.79
2019-05-14T22:36:54.917Z,10.59
2019-05-14T22:39:25.485Z,10.11
2019-05-14T22:42:00.018Z,10.12
2019-05-14T22:44:28.427Z,10.38
2019-05-14T22:46:59.012Z,10.42
2019-05-14T22:49:29.696Z,10.30
2019-05-14T22:52:00.421Z,10.19
2019-05-14T22:54:31.181Z,10.38
2019-05-14T22:57:01.742Z,10.21
2019-05-14T22:59:32.414Z,10.23
2019-05-14T23:02:03.091Z,9.94
2019-05-14T23:04:33.763Z,10.18
2019-05-14T23:07:04.423Z,10.22
2019-05-14T23:09:35.197Z,9.95
2019-05-14T23:12:11.604Z,10.11
2019-05-14T23:14:39.054Z,9.87
2019-05-14T23:17:09.862Z,9.98
2019-05-14T23:19:40.546Z,10.23
2019-05-14T23:22:11.145Z,10.19
2019-05-14T23:24:41.807Z,10.61
2019-05-14T23:27:13.214Z,10.84
2019-05-14T23:29:43.995Z,10.72
2019-05-14T23:32:16.092Z,10.74
2019-05-14T23:34:48.721Z,10.68
2019-05-14T23:37:19.541Z,10.43
2019-05-14T23:39:50.355Z,10.90
2019-05-14T23:42:20.933Z,10.38
2019-05-14T23:44:51.592Z,10.30
2019-05-14T23:47:22.209Z,10.38
2019-05-14T23:49:52.804Z,10.41
2019-05-14T23:52:23.381Z,10.52
2019-05-14T23:54:54.052Z,10.40
2019-05-14T23:57:24.648Z,10.46
2019-05-14T23:59:57.818Z,10.24
